createdAt,value
2022-08-20T00:02:14.313Z,24.13
2022-08-20T00:04:44.059Z,21.60
2022-08-20T00:07:12.112Z,21.47
2022-08-20T00:09:41.605Z,19.77
2022-08-20T00:12:10.999Z,19.27
2022-08-20T00:14:39.093Z,19.43
2022-08-20T00:17:07.476Z,18.93
2022-08-20T00:19:35.810Z,17.30
2022-08-20T00:22:05.337Z,16.83
2022-08-20T00:24:33.298Z,15.57
2022-08-20T00:27:01.418Z,20.13
2022-08-20T00:29:29.644Z,21.83
2022-08-20T00:31:57.653Z,20.10
2022-08-20T00:34:25.650Z,25.63
2022-08-20T00:36:53.634Z,24.87
2022-08-20T00:39:23.040Z,28.47
2022-08-20T00:41:51.980Z,26.13
2022-08-20T00:44:22.788Z,23.93
2022-08-20T00:46:51.969Z,26.40
2022-08-20T00:49:24.761Z,26.00
2022-08-20T00:51:57.561Z,25.83
2022-08-20T00:54:31.405Z,25.20
2022-08-20T00:57:03.470Z,27.03
2022-08-20T00:59:34.610Z,22.20
2022-08-20T01:02:03.531Z,26.50
2022-08-20T01:04:35.837Z,24.80
2022-08-20T01:07:06.361Z,24.43
2022-08-20T01:09:58.631Z,22.63
2022-08-20T01:12:25.169Z,24.47
2022-08-20T01:14:53.193Z,23.80
2022-08-20T01:17:23.705Z,24.17
2022-08-20T01:19:54.605Z,24.93
2022-08-20T01:23:09.205Z,22.80
2022-08-20T01:25:47.487Z,23.47
2022-08-20T01:28:17.942Z,22.07
2022-08-20T01:30:46.093Z,19.87
2022-08-20T01:33:14.273Z,15.97
2022-08-20T01:35:44.519Z,13.90
2022-08-20T01:38:13.742Z,13.20
2022-08-20T01:41:01.766Z,13.87
2022-08-20T01:43:29.778Z,12.60
2022-08-20T01:46:04.112Z,9.97
2022-08-20T01:48:32.789Z,8.97
2022-08-20T01:51:07.737Z,8.60
2022-08-20T01:53:39.694Z,7.93
2022-08-20T01:56:12.067Z,7.60
2022-08-20T01:58:42.657Z,6.47
2022-08-20T02:01:20.687Z,6.73
2022-08-20T02:03:48.932Z,7.10
2022-08-20T02:06:17.240Z,7.53
2022-08-20T02:08:45.520Z,7.13
2022-08-20T02:11:14.844Z,5.60
2022-08-20T02:13:42.862Z,4.90
2022-08-20T02:16:10.821Z,5.17
2022-08-20T02:18:39.621Z,5.50
2022-08-20T02:21:07.913Z,5.33
2022-08-20T02:23:35.946Z,4.97
2022-08-20T02:26:03.971Z,5.57
2022-08-20T02:28:33.330Z,4.90
2022-08-20T02:31:03.076Z,5.60
2022-08-20T02:33:31.097Z,5.50
2022-08-20T02:35:59.093Z,2.83
2022-08-20T02:38:27.139Z,3.10
2022-08-20T02:40:55.512Z,2.90
2022-08-20T02:43:23.529Z,2.13
2022-08-20T02:45:52.910Z,2.27
2022-08-20T02:48:23.137Z,2.13
2022-08-20T02:50:53.056Z,2.40
2022-08-20T02:53:22.288Z,2.03
2022-08-20T02:55:50.547Z,2.57
2022-08-20T02:58:19.137Z,2.47
2022-08-20T03:00:47.574Z,2.07
2022-08-20T03:03:20.370Z,1.83
2022-08-20T03:05:48.388Z,2.17
2022-08-20T03:08:17.305Z,1.83
2022-08-20T03:10:48.172Z,2.20
2022-08-20T03:13:17.018Z,1.90
2022-08-20T03:15:48.504Z,2.53
2022-08-20T03:18:23.976Z,2.13
2022-08-20T03:20:52.380Z,2.40
2022-08-20T03:23:21.473Z,3.00
2022-08-20T03:25:49.981Z,2.67
2022-08-20T03:28:18.241Z,2.43
2022-08-20T03:30:46.874Z,2.53
2022-08-20T03:33:16.220Z,2.37
2022-08-20T03:35:45.563Z,2.83
2022-08-20T03:38:14.608Z,3.20
2022-08-20T03:40:43.697Z,3.10
2022-08-20T03:43:12.361Z,3.00
2022-08-20T03:45:42.662Z,3.40
2022-08-20T03:48:13.384Z,3.00
2022-08-20T03:50:42.496Z,3.20
2022-08-20T03:53:14.619Z,3.60
2022-08-20T03:55:45.373Z,3.70
2022-08-20T03:58:21.764Z,3.53
2022-08-20T04:01:00.003Z,3.57
2022-08-20T04:03:28.616Z,3.63
2022-08-20T04:05:56.599Z,3.20
2022-08-20T04:08:27.856Z,3.30
2022-08-20T04:10:57.779Z,3.07
2022-08-20T04:13:27.266Z,3.37
2022-08-20T04:15:56.616Z,2.90
2022-08-20T04:18:26.149Z,3.13
2022-08-20T04:20:54.614Z,4.10
2022-08-20T04:23:23.409Z,3.57
2022-08-20T04:25:52.820Z,2.73
2022-08-20T04:28:26.953Z,3.50
2022-08-20T04:30:55.736Z,3.10
2022-08-20T04:33:34.086Z,3.53
2022-08-20T04:36:05.768Z,2.57
2022-08-20T04:38:49.960Z,2.20
2022-08-20T04:41:21.178Z,2.27
2022-08-20T04:43:53.128Z,2.80
2022-08-20T04:46:21.911Z,2.13
2022-08-20T04:48:50.301Z,3.20
2022-08-20T04:51:19.336Z,2.53
2022-08-20T04:53:52.167Z,2.50
2022-08-20T04:56:24.360Z,1.40
2022-08-20T04:58:53.055Z,2.20
2022-08-20T05:01:21.995Z,2.13
2022-08-20T05:03:50.232Z,1.10
2022-08-20T05:06:18.768Z,1.43
2022-08-20T05:08:46.833Z,1.20
2022-08-20T05:11:34.735Z,0.83
2022-08-20T05:14:06.318Z,1.00
2022-08-20T05:16:39.031Z,1.40
2022-08-20T05:19:08.742Z,1.20
2022-08-20T05:21:37.231Z,1.40
2022-08-20T05:24:06.010Z,1.30
2022-08-20T05:26:34.442Z,1.70
2022-08-20T05:29:05.134Z,1.20
2022-08-20T05:31:35.446Z,1.50
2022-08-20T05:34:04.079Z,3.33
2022-08-20T05:36:32.127Z,1.57
2022-08-20T05:39:00.209Z,1.73
2022-08-20T05:41:30.301Z,1.97
2022-08-20T05:44:00.698Z,1.90
2022-08-20T05:46:28.770Z,1.63
2022-08-20T05:48:59.648Z,1.90
2022-08-20T05:51:28.462Z,2.00
2022-08-20T05:53:59.731Z,3.77
2022-08-20T05:56:30.577Z,5.00
2022-08-20T05:59:01.841Z,1.70
2022-08-20T06:01:30.027Z,1.87
2022-08-20T06:04:17.282Z,1.33
2022-08-20T06:06:47.078Z,2.13
2022-08-20T06:09:30.607Z,1.63
2022-08-20T06:12:01.823Z,1.60
2022-08-20T06:14:29.937Z,1.00
2022-08-20T06:17:04.671Z,1.47
2022-08-20T06:19:35.197Z,1.20
2022-08-20T06:22:06.792Z,1.57
2022-08-20T06:24:46.042Z,1.20
2022-08-20T06:27:15.681Z,0.93
2022-08-20T06:29:43.805Z,1.10
2022-08-20T06:32:12.625Z,1.17
2022-08-20T06:34:50.439Z,1.03
2022-08-20T06:37:23.236Z,0.93
2022-08-20T06:39:56.264Z,1.00
2022-08-20T06:42:24.276Z,0.80
2022-08-20T06:44:52.257Z,0.70
2022-08-20T06:47:22.128Z,1.20
2022-08-20T06:49:51.522Z,1.70
2022-08-20T06:52:19.611Z,1.60
2022-08-20T06:54:57.900Z,1.73
2022-08-20T06:57:26.037Z,2.00
2022-08-20T06:59:56.126Z,1.00
2022-08-20T07:02:29.261Z,1.40
2022-08-20T07:05:00.045Z,1.33
2022-08-20T07:07:28.323Z,1.20
2022-08-20T07:10:00.854Z,1.60
2022-08-20T07:12:28.919Z,4.30
2022-08-20T07:14:57.174Z,1.00
2022-08-20T07:17:25.169Z,1.40
2022-08-20T07:19:53.374Z,1.30
2022-08-20T07:22:23.169Z,0.80
2022-08-20T07:24:51.176Z,0.70
2022-08-20T07:27:22.288Z,2.07
2022-08-20T07:30:10.978Z,1.00
2022-08-20T07:32:45.388Z,4.20
2022-08-20T07:35:17.597Z,2.70
2022-08-20T07:37:49.232Z,0.80
2022-08-20T07:40:25.676Z,0.90
2022-08-20T07:42:54.726Z,1.63
2022-08-20T07:45:23.653Z,1.93
2022-08-20T07:47:53.650Z,1.33
2022-08-20T07:50:24.650Z,1.40
2022-08-20T07:52:54.129Z,1.30
2022-08-20T07:55:22.993Z,1.17
2022-08-20T07:57:51.727Z,1.43
2022-08-20T08:00:21.180Z,2.10
2022-08-20T08:02:49.166Z,1.27
2022-08-20T08:05:18.785Z,1.60
2022-08-20T08:07:48.225Z,1.07
2022-08-20T08:10:19.972Z,1.50
2022-08-20T08:12:51.974Z,1.80
2022-08-20T08:15:22.653Z,2.20
2022-08-20T08:17:52.658Z,2.30
2022-08-20T08:20:22.666Z,2.33
2022-08-20T08:22:51.003Z,2.40
2022-08-20T08:25:20.662Z,2.50
2022-08-20T08:27:49.041Z,3.10
2022-08-20T08:30:18.352Z,3.27
2022-08-20T08:33:03.627Z,2.60
2022-08-20T08:35:32.577Z,3.90
2022-08-20T08:38:02.529Z,4.37
2022-08-20T08:40:32.567Z,4.27
2022-08-20T08:43:02.922Z,5.10
2022-08-20T08:45:36.765Z,4.30
2022-08-20T08:48:05.675Z,5.23
2022-08-20T08:50:53.844Z,7.17
2022-08-20T08:53:26.688Z,4.60
2022-08-20T08:55:56.133Z,3.10
2022-08-20T08:58:24.390Z,3.80
2022-08-20T09:00:57.480Z,4.07
2022-08-20T09:03:32.842Z,3.87
2022-08-20T09:06:02.917Z,3.77
2022-08-20T09:08:33.833Z,3.70
2022-08-20T09:11:08.313Z,4.13
2022-08-20T09:13:36.458Z,6.23
2022-08-20T09:16:05.158Z,3.20
2022-08-20T09:18:33.257Z,3.80
2022-08-20T09:21:01.262Z,4.10
2022-08-20T09:23:29.265Z,3.83
2022-08-20T09:25:57.239Z,3.40
2022-08-20T09:28:32.277Z,3.80
2022-08-20T09:31:00.834Z,3.90
2022-08-20T09:33:29.089Z,4.00
2022-08-20T09:35:57.216Z,5.50
2022-08-20T09:38:25.265Z,5.83
2022-08-20T09:40:53.276Z,4.93
2022-08-20T09:43:21.278Z,6.90
2022-08-20T09:45:50.603Z,7.07
2022-08-20T09:48:18.616Z,6.90
2022-08-20T09:50:48.915Z,7.83
2022-08-20T09:53:17.628Z,8.33
2022-08-20T09:55:47.377Z,8.27
2022-08-20T09:58:20.101Z,7.83
2022-08-20T10:00:48.265Z,7.50
2022-08-20T10:03:17.945Z,7.97
2022-08-20T10:05:46.040Z,7.80
2022-08-20T10:08:14.391Z,7.87
2022-08-20T10:10:42.461Z,7.03
2022-08-20T10:13:13.340Z,8.97
2022-08-20T10:15:43.522Z,7.00
2022-08-20T10:18:12.575Z,7.53
2022-08-20T10:20:42.552Z,6.53
2022-08-20T10:23:10.921Z,7.23
2022-08-20T10:25:39.358Z,7.10
2022-08-20T10:28:07.705Z,6.50
2022-08-20T10:30:35.805Z,6.33
2022-08-20T10:33:03.810Z,5.23
2022-08-20T10:35:31.939Z,5.07
2022-08-20T10:38:01.313Z,4.33
2022-08-20T10:40:29.542Z,4.17
2022-08-20T10:42:57.542Z,4.33
2022-08-20T10:45:25.811Z,4.90
2022-08-20T10:47:53.967Z,5.13
2022-08-20T10:50:22.021Z,4.73
2022-08-20T10:52:50.017Z,5.47
2022-08-20T10:55:20.749Z,5.30
2022-08-20T10:57:48.732Z,5.67
2022-08-20T11:00:19.401Z,5.47
2022-08-20T11:02:47.672Z,4.40
2022-08-20T11:05:15.813Z,5.07
2022-08-20T11:07:49.882Z,4.20
2022-08-20T11:10:27.432Z,4.70
2022-08-20T11:12:55.773Z,4.00
2022-08-20T11:15:23.830Z,3.70
2022-08-20T11:17:51.880Z,5.47
2022-08-20T11:20:22.026Z,4.13
2022-08-20T11:22:50.066Z,3.53
2022-08-20T11:25:18.397Z,4.10
2022-08-20T11:27:50.523Z,4.37
2022-08-20T11:30:21.497Z,3.90
2022-08-20T11:32:49.485Z,4.87
2022-08-20T11:35:41.747Z,4.17
2022-08-20T11:38:06.789Z,3.70
2022-08-20T11:40:34.877Z,3.53
2022-08-20T11:43:14.621Z,3.90
2022-08-20T11:45:43.963Z,4.60
2022-08-20T11:48:11.958Z,4.80
2022-08-20T11:50:39.901Z,4.33
2022-08-20T11:53:08.168Z,6.23
2022-08-20T11:55:36.512Z,5.03
2022-08-20T11:58:06.318Z,5.33
2022-08-20T12:00:34.573Z,6.50
2022-08-20T12:03:05.191Z,5.50
2022-08-20T12:05:33.616Z,5.83
2022-08-20T12:08:02.801Z,5.77
2022-08-20T12:10:31.057Z,6.07
2022-08-20T12:12:59.251Z,5.63
2022-08-20T12:15:28.877Z,5.70
2022-08-20T12:17:57.051Z,5.37
2022-08-20T12:20:25.560Z,5.97
2022-08-20T12:22:54.047Z,5.30
2022-08-20T12:25:22.508Z,4.63
2022-08-20T12:27:50.473Z,5.23
2022-08-20T12:30:22.032Z,5.13
2022-08-20T12:32:51.502Z,5.83
2022-08-20T12:35:20.068Z,6.10
2022-08-20T12:37:48.132Z,5.40
2022-08-20T12:40:29.490Z,7.20
2022-08-20T12:43:00.083Z,6.80
2022-08-20T12:45:28.065Z,6.83
2022-08-20T12:48:03.154Z,7.13
2022-08-20T12:50:32.049Z,7.93
2022-08-20T12:53:00.495Z,9.03
2022-08-20T12:55:28.678Z,8.20
2022-08-20T12:57:59.276Z,8.10
2022-08-20T13:00:29.416Z,9.03
2022-08-20T13:03:00.505Z,8.30
2022-08-20T13:05:29.226Z,7.50
2022-08-20T13:07:57.679Z,8.53
2022-08-20T13:10:27.646Z,8.77
2022-08-20T13:12:55.794Z,8.70
2022-08-20T13:15:24.747Z,8.10
2022-08-20T13:17:53.585Z,9.40
2022-08-20T13:20:25.575Z,9.77
2022-08-20T13:22:58.995Z,9.27
2022-08-20T13:25:27.315Z,10.17
2022-08-20T13:27:58.383Z,9.57
2022-08-20T13:30:27.059Z,11.33
2022-08-20T13:32:55.296Z,9.90
2022-08-20T13:35:24.849Z,9.27
2022-08-20T13:37:52.824Z,10.10
2022-08-20T13:40:20.896Z,9.70
2022-08-20T13:42:48.933Z,8.27
2022-08-20T13:45:16.925Z,8.20
2022-08-20T13:47:45.343Z,8.37
2022-08-20T13:50:16.317Z,8.43
2022-08-20T13:52:46.162Z,7.33
2022-08-20T13:55:16.410Z,5.33
2022-08-20T13:57:45.099Z,6.67
2022-08-20T14:00:17.562Z,5.63
2022-08-20T14:02:45.652Z,5.40
2022-08-20T14:05:14.185Z,6.10
2022-08-20T14:07:48.281Z,4.90
2022-08-20T14:10:19.440Z,4.23
2022-08-20T14:12:48.256Z,4.90
2022-08-20T14:15:16.529Z,4.20
2022-08-20T14:17:51.153Z,4.10
2022-08-20T14:20:21.743Z,3.67
2022-08-20T14:22:51.385Z,3.50
2022-08-20T14:25:21.164Z,3.60
2022-08-20T14:27:49.156Z,3.07
2022-08-20T14:30:19.441Z,3.13
2022-08-20T14:32:47.480Z,2.93
2022-08-20T14:35:15.421Z,3.60
2022-08-20T14:37:45.516Z,2.67
2022-08-20T14:40:17.233Z,3.40
2022-08-20T14:42:45.844Z,2.83
2022-08-20T14:45:19.735Z,2.90
2022-08-20T14:47:53.390Z,3.53
2022-08-20T14:50:25.052Z,2.90
2022-08-20T14:52:53.226Z,2.20
2022-08-20T14:55:24.751Z,2.57
2022-08-20T14:57:52.782Z,2.53
2022-08-20T15:00:26.615Z,2.50
2022-08-20T15:02:54.785Z,2.60
2022-08-20T15:05:22.801Z,6.87
2022-08-20T15:07:54.184Z,1.83
2022-08-20T15:10:26.683Z,1.50
2022-08-20T15:12:55.209Z,2.23
2022-08-20T15:15:24.035Z,1.70
2022-08-20T15:17:54.904Z,1.40
2022-08-20T15:20:31.107Z,1.30
2022-08-20T15:22:59.437Z,1.00
2022-08-20T15:25:36.591Z,0.60
2022-08-20T15:28:06.478Z,0.60
2022-08-20T15:30:34.485Z,0.60
2022-08-20T15:33:02.815Z,1.73
2022-08-20T15:35:31.126Z,0.60
2022-08-20T15:38:00.218Z,1.00
2022-08-20T15:40:31.732Z,0.57
2022-08-20T15:43:00.923Z,0.60
2022-08-20T15:45:29.176Z,1.17
2022-08-20T15:48:02.759Z,0.60
2022-08-20T15:50:49.516Z,0.70
2022-08-20T15:53:21.686Z,3.77
2022-08-20T15:55:57.560Z,0.80
2022-08-20T15:58:33.217Z,0.87
2022-08-20T16:01:23.817Z,0.87
2022-08-20T16:04:08.265Z,0.70
2022-08-20T16:06:36.899Z,0.60
2022-08-20T16:09:18.952Z,0.93
2022-08-20T16:11:52.251Z,0.93
2022-08-20T16:14:22.672Z,0.70
2022-08-20T16:16:57.915Z,0.60
2022-08-20T16:19:48.232Z,0.60
2022-08-20T16:22:18.906Z,1.10
2022-08-20T16:24:47.149Z,0.50
2022-08-20T16:27:25.053Z,0.70
2022-08-20T16:30:00.443Z,0.90
2022-08-20T16:32:35.709Z,1.00
2022-08-20T16:35:08.690Z,5.23
2022-08-20T16:37:41.149Z,0.60
2022-08-20T16:40:17.220Z,0.57
2022-08-20T16:42:48.876Z,0.67
2022-08-20T16:45:21.782Z,0.70
2022-08-20T16:47:50.832Z,0.67
2022-08-20T16:50:22.662Z,0.67
2022-08-20T16:52:51.640Z,0.60
2022-08-20T16:55:20.455Z,0.60
2022-08-20T16:57:51.668Z,0.63
2022-08-20T17:00:25.358Z,0.60
2022-08-20T17:02:55.656Z,0.60
2022-08-20T17:05:25.977Z,0.70
2022-08-20T17:07:57.307Z,0.60
2022-08-20T17:10:28.802Z,1.00
2022-08-20T17:13:00.220Z,0.60
2022-08-20T17:15:30.925Z,0.60
2022-08-20T17:17:59.321Z,1.10
2022-08-20T17:20:29.625Z,0.80
2022-08-20T17:23:10.898Z,1.63
2022-08-20T17:25:38.916Z,1.10
2022-08-20T17:28:16.071Z,0.60
2022-08-20T17:30:44.413Z,3.83
2022-08-20T17:33:24.336Z,1.10
2022-08-20T17:35:55.389Z,0.87
2022-08-20T17:38:33.644Z,0.67
2022-08-20T17:41:03.517Z,3.70
2022-08-20T17:43:34.613Z,1.33
2022-08-20T17:46:16.297Z,1.67
2022-08-20T17:48:45.553Z,0.80
2022-08-20T17:51:18.202Z,0.80
2022-08-20T17:53:52.134Z,0.87
2022-08-20T17:56:22.979Z,0.60
2022-08-20T17:59:03.167Z,0.70
2022-08-20T18:01:31.799Z,2.23
2022-08-20T18:03:59.978Z,0.80
2022-08-20T18:06:32.451Z,0.70
2022-08-20T18:09:04.349Z,0.70
2022-08-20T18:11:35.190Z,0.80
2022-08-20T18:14:27.562Z,0.60
2022-08-20T18:17:15.462Z,0.90
2022-08-20T18:20:21.803Z,0.80
2022-08-20T18:22:53.668Z,0.67
2022-08-20T18:25:32.605Z,1.00
2022-08-20T18:28:06.301Z,1.13
2022-08-20T18:30:35.777Z,1.97
2022-08-20T18:33:06.610Z,1.07
2022-08-20T18:35:38.714Z,1.00
2022-08-20T18:38:26.129Z,2.50
2022-08-20T18:40:55.391Z,2.20
2022-08-20T18:43:30.437Z,1.03
2022-08-20T18:46:10.636Z,1.77
2022-08-20T18:48:38.665Z,1.37
2022-08-20T18:51:11.662Z,2.73
2022-08-20T18:53:52.036Z,1.60
2022-08-20T18:56:31.892Z,1.93
2022-08-20T18:59:02.681Z,2.50
2022-08-20T19:01:36.037Z,1.70
2022-08-20T19:04:16.216Z,1.83
2022-08-20T19:06:49.441Z,2.20
2022-08-20T19:09:24.897Z,2.23
2022-08-20T19:12:01.770Z,2.30
2022-08-20T19:15:09.431Z,2.23
2022-08-20T19:17:50.697Z,2.20
2022-08-20T19:20:21.388Z,2.80
2022-08-20T19:22:50.617Z,2.97
2022-08-20T19:25:27.256Z,2.30
2022-08-20T19:27:55.433Z,3.40
2022-08-20T19:30:42.318Z,2.90
2022-08-20T19:33:11.836Z,2.93
2022-08-20T19:35:40.112Z,3.30
2022-08-20T19:38:09.279Z,2.67
2022-08-20T19:40:40.308Z,2.90
2022-08-20T19:43:42.773Z,3.50
2022-08-20T19:46:32.338Z,2.93
2022-08-20T19:49:24.471Z,3.13
2022-08-20T19:52:23.180Z,3.23
2022-08-20T19:55:21.486Z,3.00
2022-08-20T19:58:26.650Z,2.80
2022-08-20T20:00:56.158Z,2.80
2022-08-20T20:03:42.861Z,3.20
2022-08-20T20:06:34.878Z,2.90
2022-08-20T20:09:24.870Z,3.20
2022-08-20T20:12:21.483Z,3.33
2022-08-20T20:15:09.962Z,3.30
2022-08-20T20:17:56.265Z,3.60
2022-08-20T20:20:56.980Z,3.23
2022-08-20T20:23:41.608Z,3.77
2022-08-20T20:26:19.883Z,3.20
2022-08-20T20:28:49.923Z,3.03
2022-08-20T20:31:24.056Z,3.53
2022-08-20T20:33:54.708Z,3.80
2022-08-20T20:36:34.162Z,3.97
2022-08-20T20:39:11.213Z,4.33
2022-08-20T20:41:51.492Z,3.57
2022-08-20T20:44:22.119Z,2.70
2022-08-20T20:46:57.629Z,3.10
2022-08-20T20:49:27.435Z,3.60
2022-08-20T20:51:58.898Z,3.27
2022-08-20T20:54:31.877Z,3.13
2022-08-20T20:57:02.922Z,3.53
2022-08-20T20:59:33.222Z,3.80
2022-08-20T21:02:01.632Z,3.10
2022-08-20T21:04:29.734Z,4.20
2022-08-20T21:06:59.284Z,3.57
2022-08-20T21:09:27.504Z,3.37
2022-08-20T21:11:56.857Z,3.67
2022-08-20T21:14:24.809Z,4.03
2022-08-20T21:16:53.507Z,3.90
2022-08-20T21:19:21.605Z,4.17
2022-08-20T21:21:49.608Z,4.00
2022-08-20T21:24:17.935Z,4.23
2022-08-20T21:26:46.358Z,4.10
2022-08-20T21:29:18.344Z,5.33
2022-08-20T21:31:46.885Z,4.17
2022-08-20T21:34:16.432Z,4.40
2022-08-20T21:36:45.113Z,5.40
2022-08-20T21:39:13.609Z,4.67
2022-08-20T21:41:42.860Z,5.20
2022-08-20T21:44:13.589Z,4.70
2022-08-20T21:46:43.009Z,4.57
2022-08-20T21:49:10.976Z,4.60
2022-08-20T21:51:38.974Z,5.53
2022-08-20T21:54:07.004Z,5.20
2022-08-20T21:56:36.029Z,4.97
2022-08-20T21:59:05.132Z,4.83
2022-08-20T22:01:33.489Z,4.63
2022-08-20T22:04:02.929Z,4.70
2022-08-20T22:06:31.312Z,4.93
2022-08-20T22:08:59.509Z,5.20
2022-08-20T22:11:27.785Z,6.03
2022-08-20T22:13:56.239Z,5.20
2022-08-20T22:16:24.461Z,5.27
2022-08-20T22:18:53.448Z,5.17
2022-08-20T22:21:26.513Z,5.70
2022-08-20T22:23:56.377Z,5.53
2022-08-20T22:26:27.467Z,5.30
2022-08-20T22:28:55.541Z,7.00
2022-08-20T22:31:27.901Z,6.03
2022-08-20T22:33:56.296Z,4.70
2022-08-20T22:36:26.590Z,5.50
2022-08-20T22:38:55.018Z,5.33
2022-08-20T22:41:23.549Z,5.67
2022-08-20T22:43:56.444Z,6.00
2022-08-20T22:46:26.414Z,4.97
2022-08-20T22:48:55.211Z,4.87
2022-08-20T22:51:28.269Z,4.93
2022-08-20T22:53:56.331Z,5.30
2022-08-20T22:56:24.310Z,4.80
2022-08-20T22:58:52.278Z,4.87
2022-08-20T23:01:21.430Z,3.80
2022-08-20T23:03:49.439Z,3.87
2022-08-20T23:06:17.616Z,3.80
2022-08-20T23:08:47.039Z,4.23
2022-08-20T23:11:15.025Z,4.53
2022-08-20T23:13:42.976Z,4.70
2022-08-20T23:16:11.026Z,4.43
2022-08-20T23:18:39.008Z,4.50
2022-08-20T23:21:07.177Z,4.07
2022-08-20T23:23:35.517Z,4.40
2022-08-20T23:26:05.278Z,4.60
2022-08-20T23:28:33.911Z,4.40
2022-08-20T23:31:01.967Z,4.67
2022-08-20T23:33:31.401Z,4.43
2022-08-20T23:36:00.638Z,4.70
2022-08-20T23:38:28.626Z,5.67
2022-08-20T23:40:56.562Z,4.60
2022-08-20T23:43:25.902Z,4.50
2022-08-20T23:45:53.856Z,4.70
2022-08-20T23:48:21.957Z,3.93
2022-08-20T23:50:49.958Z,7.10
2022-08-20T23:53:17.958Z,4.70
2022-08-20T23:55:46.298Z,4.60
2022-08-20T23:58:14.249Z,4.97
